createdAt,value
2018-06-01T00:01:56.609Z,39.73
2018-06-01T00:04:24.208Z,36.23
2018-06-01T00:06:53.293Z,32.83
2018-06-01T00:09:21.053Z,38.10
2018-06-01T00:11:48.868Z,45.23
2018-06-01T00:14:17.218Z,44.07
2018-06-01T00:16:44.882Z,37.80
2018-06-01T00:19:12.494Z,36.50
2018-06-01T00:21:40.065Z,35.63
2018-06-01T00:24:07.649Z,41.57
2018-06-01T00:26:35.310Z,33.37
2018-06-01T00:29:02.892Z,37.07
2018-06-01T00:31:30.562Z,33.20
2018-06-01T00:33:58.169Z,34.67
2018-06-01T00:36:26.804Z,34.40
2018-06-01T00:38:54.408Z,30.90
2018-06-01T00:41:22.194Z,46.93
2018-06-01T00:43:50.437Z,33.77
2018-06-01T00:46:18.038Z,34.57
2018-06-01T00:48:45.625Z,41.50
2018-06-01T00:51:13.814Z,32.50
2018-06-01T00:53:41.402Z,37.83
2018-06-01T00:56:09.764Z,31.57
2018-06-01T00:58:37.445Z,39.20
2018-06-01T01:01:05.025Z,34.33
2018-06-01T01:03:33.735Z,32.40
2018-06-01T01:06:01.528Z,35.53
2018-06-01T01:08:29.324Z,33.97
2018-06-01T01:10:56.893Z,38.63
2018-06-01T01:13:26.288Z,45.50
2018-06-01T01:15:54.617Z,33.23
2018-06-01T01:18:22.379Z,34.20
2018-06-01T01:20:50.481Z,32.97
2018-06-01T01:23:18.187Z,33.73
2018-06-01T01:25:46.528Z,36.63
2018-06-01T01:28:14.139Z,30.40
2018-06-01T01:30:41.705Z,34.63
2018-06-01T01:33:09.583Z,29.60
2018-06-01T01:35:37.179Z,34.87
2018-06-01T01:38:04.754Z,36.20
2018-06-01T01:40:32.360Z,34.07
2018-06-01T01:43:00.883Z,43.47
2018-06-01T01:45:28.464Z,28.20
2018-06-01T01:47:56.874Z,29.53
2018-06-01T01:50:25.538Z,30.80
2018-06-01T01:52:53.154Z,29.73
2018-06-01T01:55:20.749Z,31.13
2018-06-01T01:57:48.305Z,33.20
2018-06-01T02:00:15.893Z,36.37
2018-06-01T02:02:44.222Z,31.17
2018-06-01T02:05:12.201Z,36.87
2018-06-01T02:07:39.819Z,34.97
2018-06-01T02:10:08.178Z,30.20
2018-06-01T02:12:35.944Z,28.77
2018-06-01T02:15:03.553Z,36.87
2018-06-01T02:17:31.133Z,31.13
2018-06-01T02:19:59.179Z,32.63
2018-06-01T02:22:27.372Z,32.93
2018-06-01T02:24:56.857Z,33.37
2018-06-01T02:27:25.248Z,33.50
2018-06-01T02:29:52.863Z,35.63
2018-06-01T02:32:20.459Z,32.53
2018-06-01T02:34:48.135Z,37.70
2018-06-01T02:37:15.707Z,37.60
2018-06-01T02:39:43.373Z,37.97
2018-06-01T02:42:10.954Z,35.13
2018-06-01T02:44:38.629Z,29.67
2018-06-01T02:47:06.206Z,35.27
2018-06-01T02:49:34.267Z,35.70
2018-06-01T02:52:01.975Z,34.80
2018-06-01T02:54:29.717Z,37.00
2018-06-01T02:56:57.327Z,39.87
2018-06-01T02:59:25.806Z,37.07
2018-06-01T03:01:53.681Z,39.97
2018-06-01T03:04:22.124Z,37.13
2018-06-01T03:07:02.335Z,30.97
2018-06-01T03:09:29.925Z,34.87
2018-06-01T03:11:57.522Z,30.80
2018-06-01T03:14:26.045Z,38.83
2018-06-01T03:16:54.451Z,31.87
2018-06-01T03:19:22.527Z,31.53
2018-06-01T03:21:50.118Z,36.00
2018-06-01T03:24:17.713Z,39.47
2018-06-01T03:26:45.293Z,46.20
2018-06-01T03:29:12.857Z,46.97
2018-06-01T03:31:40.445Z,37.90
2018-06-01T03:34:08.110Z,33.83
2018-06-01T03:36:35.756Z,33.30
2018-06-01T03:39:03.345Z,33.77
2018-06-01T03:41:31.037Z,31.97
2018-06-01T03:43:58.983Z,44.47
2018-06-01T03:46:26.684Z,38.27
2018-06-01T03:48:54.251Z,37.67
2018-06-01T03:51:21.833Z,41.67
2018-06-01T03:53:49.397Z,40.20
2018-06-01T03:56:16.978Z,40.73
2018-06-01T03:58:44.554Z,45.30
2018-06-01T04:01:12.138Z,47.07
2018-06-01T04:03:42.782Z,55.23
2018-06-01T04:06:10.391Z,53.40
2018-06-01T04:08:38.193Z,52.70
2018-06-01T04:11:05.842Z,58.30
2018-06-01T04:13:33.502Z,58.80
2018-06-01T04:16:02.076Z,57.23
2018-06-01T04:18:30.003Z,52.00
2018-06-01T04:20:58.534Z,55.70
2018-06-01T04:23:26.317Z,62.13
2018-06-01T04:25:53.885Z,52.30
2018-06-01T04:28:21.560Z,37.30
2018-06-01T04:30:49.145Z,43.53
2018-06-01T04:33:16.727Z,37.30
2018-06-01T04:35:44.381Z,50.30
2018-06-01T04:38:12.062Z,48.60
2018-06-01T04:40:39.789Z,44.60
2018-06-01T04:43:07.454Z,44.83
2018-06-01T04:45:35.968Z,36.30
2018-06-01T04:48:03.626Z,39.40
2018-06-01T04:50:31.256Z,38.23
2018-06-01T04:52:58.942Z,32.70
2018-06-01T04:55:26.505Z,34.63
2018-06-01T04:57:54.078Z,40.63
2018-06-01T05:00:21.657Z,47.20
2018-06-01T05:02:49.329Z,45.33
2018-06-01T05:05:16.889Z,49.67
2018-06-01T05:07:44.465Z,41.60
2018-06-01T05:10:12.027Z,36.40
2018-06-01T05:12:39.609Z,38.00
2018-06-01T05:15:07.162Z,35.00
2018-06-01T05:17:34.745Z,30.20
2018-06-01T05:20:02.325Z,24.40
2018-06-01T05:22:29.933Z,35.07
2018-06-01T05:24:57.497Z,33.90
2018-06-01T05:27:25.097Z,29.70
2018-06-01T05:29:53.438Z,29.20
2018-06-01T05:32:21.052Z,27.63
2018-06-01T05:34:48.618Z,24.33
2018-06-01T05:37:16.172Z,31.37
2018-06-01T05:39:43.760Z,25.00
2018-06-01T05:42:11.325Z,28.13
2018-06-01T05:44:38.922Z,22.47
2018-06-01T05:47:06.530Z,22.33
2018-06-01T05:49:34.275Z,23.07
2018-06-01T05:52:01.918Z,16.37
2018-06-01T05:54:29.708Z,15.87
2018-06-01T05:56:57.286Z,19.30
2018-06-01T05:59:24.885Z,12.03
2018-06-01T06:01:52.906Z,14.47
2018-06-01T06:04:21.261Z,16.53
2018-06-01T06:06:49.877Z,13.67
2018-06-01T06:09:17.634Z,13.07
2018-06-01T06:11:45.189Z,13.50
2018-06-01T06:14:12.773Z,13.53
2018-06-01T06:16:40.435Z,17.70
2018-06-01T06:19:08.428Z,17.03
2018-06-01T06:21:36.154Z,14.13
2018-06-01T06:24:03.770Z,13.47
2018-06-01T06:26:31.699Z,15.73
2018-06-01T06:29:00.003Z,13.87
2018-06-01T06:31:28.917Z,12.33
2018-06-01T06:33:56.603Z,21.03
2018-06-01T06:36:24.262Z,12.73
2018-06-01T06:38:51.908Z,15.27
2018-06-01T06:41:19.482Z,17.73
2018-06-01T06:43:47.095Z,15.23
2018-06-01T06:46:14.673Z,12.77
2018-06-01T06:48:42.256Z,9.87
2018-06-01T06:51:09.867Z,11.50
2018-06-01T06:53:38.242Z,10.27
2018-06-01T06:56:06.677Z,19.20
2018-06-01T06:58:34.257Z,11.23
2018-06-01T07:01:01.962Z,13.50
2018-06-01T07:03:29.551Z,14.93
2018-06-01T07:05:57.133Z,13.03
2018-06-01T07:08:24.787Z,21.90
2018-06-01T07:10:52.372Z,10.67
2018-06-01T07:13:19.925Z,8.03
2018-06-01T07:15:47.506Z,11.87
2018-06-01T07:18:15.090Z,11.77
2018-06-01T07:20:42.866Z,19.33
2018-06-01T07:23:10.638Z,14.97
2018-06-01T07:25:38.422Z,14.73
2018-06-01T07:28:06.005Z,11.10
2018-06-01T07:30:33.591Z,17.33
2018-06-01T07:33:01.459Z,10.97
2018-06-01T07:35:29.057Z,12.17
2018-06-01T07:37:56.620Z,11.57
2018-06-01T07:40:24.204Z,13.03
2018-06-01T07:42:51.766Z,14.10
2018-06-01T07:45:19.512Z,12.33
2018-06-01T07:47:47.139Z,16.40
2018-06-01T07:50:14.829Z,9.87
2018-06-01T07:52:42.514Z,10.90
2018-06-01T07:55:10.183Z,11.93
2018-06-01T07:57:39.538Z,16.13
2018-06-01T08:00:07.425Z,9.30
2018-06-01T08:02:35.030Z,8.37
2018-06-01T08:05:02.581Z,12.60
2018-06-01T08:07:30.164Z,13.40
2018-06-01T08:09:57.717Z,12.67
2018-06-01T08:12:25.325Z,10.43
2018-06-01T08:14:53.266Z,13.53
2018-06-01T08:17:21.049Z,13.37
2018-06-01T08:19:48.664Z,9.20
2018-06-01T08:22:17.028Z,13.33
2018-06-01T08:24:44.609Z,12.40
2018-06-01T08:27:12.195Z,13.57
2018-06-01T08:29:39.857Z,7.73
2018-06-01T08:32:08.006Z,15.00
2018-06-01T08:34:35.806Z,10.87
2018-06-01T08:37:03.933Z,10.57
2018-06-01T08:39:31.832Z,8.90
2018-06-01T08:41:59.458Z,11.50
2018-06-01T08:44:27.029Z,9.63
2018-06-01T08:46:54.610Z,9.27
2018-06-01T08:49:22.277Z,10.23
2018-06-01T08:51:49.844Z,10.37
2018-06-01T08:54:17.521Z,15.03
2018-06-01T08:56:45.210Z,8.93
2018-06-01T08:59:12.792Z,8.13
2018-06-01T09:01:41.173Z,8.30
2018-06-01T09:04:08.782Z,10.57
2018-06-01T09:06:36.501Z,10.07
2018-06-01T09:09:04.130Z,17.03
2018-06-01T09:11:32.248Z,7.40
2018-06-01T09:13:59.853Z,9.10
2018-06-01T09:16:27.409Z,7.33
2018-06-01T09:18:54.990Z,15.17
2018-06-01T09:21:22.545Z,14.70
2018-06-01T09:23:50.100Z,9.83
2018-06-01T09:26:18.013Z,11.73
2018-06-01T09:28:46.283Z,12.23
2018-06-01T09:31:13.908Z,11.17
2018-06-01T09:33:42.344Z,15.73
2018-06-01T09:36:10.425Z,9.33
2018-06-01T09:38:38.225Z,9.20
2018-06-01T09:41:05.862Z,6.77
2018-06-01T09:43:33.477Z,17.00
2018-06-01T09:46:01.051Z,9.87
2018-06-01T09:48:28.610Z,8.83
2018-06-01T09:50:56.185Z,9.73
2018-06-01T09:53:23.742Z,9.60
2018-06-01T09:55:51.321Z,8.90
2018-06-01T09:58:18.918Z,10.53
2018-06-01T10:00:52.131Z,11.47
2018-06-01T10:03:19.757Z,12.40
2018-06-01T10:05:47.377Z,12.30
2018-06-01T10:08:15.885Z,7.50
2018-06-01T10:10:44.230Z,12.73
2018-06-01T10:13:11.813Z,18.47
2018-06-01T10:15:39.404Z,18.73
2018-06-01T10:18:06.982Z,7.70
2018-06-01T10:20:35.344Z,30.87
2018-06-01T10:23:02.930Z,18.10
2018-06-01T10:25:30.485Z,7.93
2018-06-01T10:27:58.114Z,10.60
2018-06-01T10:30:26.473Z,10.20
2018-06-01T10:32:54.251Z,9.33
2018-06-01T10:35:21.990Z,9.63
2018-06-01T10:37:49.783Z,11.30
2018-06-01T10:40:17.362Z,7.30
2018-06-01T10:42:44.946Z,9.57
2018-06-01T10:45:12.519Z,8.37
2018-06-01T10:47:40.093Z,10.33
2018-06-01T10:50:07.670Z,6.83
2018-06-01T10:52:35.332Z,11.23
2018-06-01T10:55:02.907Z,5.40
2018-06-01T10:57:30.477Z,6.30
2018-06-01T10:59:58.078Z,6.90
2018-06-01T11:02:25.903Z,8.17
2018-06-01T11:04:53.522Z,8.83
2018-06-01T11:07:21.854Z,5.37
2018-06-01T11:09:49.465Z,9.73
2018-06-01T11:12:17.037Z,10.57
2018-06-01T11:14:44.709Z,5.97
2018-06-01T11:17:12.281Z,6.63
2018-06-01T11:19:39.855Z,6.10
2018-06-01T11:22:07.605Z,10.50
2018-06-01T11:24:35.473Z,11.10
2018-06-01T11:27:03.119Z,10.17
2018-06-01T11:29:31.495Z,6.30
2018-06-01T11:32:00.047Z,14.60
2018-06-01T11:34:27.920Z,6.40
2018-06-01T11:36:55.489Z,5.93
2018-06-01T11:39:23.134Z,5.87
2018-06-01T11:41:51.510Z,4.40
2018-06-01T11:44:19.878Z,8.47
2018-06-01T11:46:49.481Z,5.20
2018-06-01T11:49:17.072Z,5.80
2018-06-01T11:51:44.635Z,5.03
2018-06-01T11:54:12.230Z,4.53
2018-06-01T11:56:39.786Z,3.97
2018-06-01T11:59:07.338Z,5.13
2018-06-01T12:01:35.695Z,5.37
2018-06-01T12:04:03.297Z,7.87
2018-06-01T12:06:30.944Z,4.67
2018-06-01T12:08:58.558Z,6.37
2018-06-01T12:11:26.144Z,6.00
2018-06-01T12:13:53.694Z,5.23
2018-06-01T12:16:21.271Z,10.10
2018-06-01T12:18:48.857Z,9.47
2018-06-01T12:21:16.533Z,8.00
2018-06-01T12:23:44.110Z,6.60
2018-06-01T12:26:11.686Z,4.17
2018-06-01T12:28:39.245Z,7.00
2018-06-01T12:31:06.957Z,11.40
2018-06-01T12:33:35.310Z,5.73
2018-06-01T12:36:03.074Z,5.07
2018-06-01T12:38:30.679Z,7.33
2018-06-01T12:40:59.471Z,4.37
2018-06-01T12:43:27.050Z,6.13
2018-06-01T12:45:54.629Z,4.17
2018-06-01T12:48:22.334Z,8.30
2018-06-01T12:50:49.961Z,6.93
2018-06-01T12:53:17.513Z,4.93
2018-06-01T12:55:45.089Z,5.83
2018-06-01T12:58:12.646Z,5.60
2018-06-01T13:00:40.226Z,5.10
2018-06-01T13:03:07.839Z,4.23
2018-06-01T13:05:35.766Z,4.10
2018-06-01T13:08:03.377Z,8.70
2018-06-01T13:10:31.224Z,4.23
2018-06-01T13:12:59.883Z,7.70
2018-06-01T13:15:27.529Z,5.87
2018-06-01T13:17:55.914Z,5.63
2018-06-01T13:20:23.559Z,6.13
2018-06-01T13:22:51.136Z,6.60
2018-06-01T13:25:18.688Z,5.60
2018-06-01T13:27:46.270Z,6.43
2018-06-01T13:30:13.825Z,6.23
2018-06-01T13:32:42.173Z,7.57
2018-06-01T13:35:09.743Z,3.00
2018-06-01T13:37:37.393Z,8.60
2018-06-01T13:40:04.969Z,4.70
2018-06-01T13:42:32.739Z,5.30
2018-06-01T13:45:00.624Z,4.33
2018-06-01T13:47:30.098Z,4.60
2018-06-01T13:49:57.804Z,9.13
2018-06-01T13:52:25.382Z,4.10
2018-06-01T13:54:52.933Z,3.33
2018-06-01T13:57:22.426Z,6.60
2018-06-01T13:59:49.985Z,3.27
2018-06-01T14:02:17.645Z,4.00
2018-06-01T14:04:45.218Z,3.47
2018-06-01T14:07:12.788Z,5.20
2018-06-01T14:09:40.354Z,2.70
2018-06-01T14:12:08.134Z,3.37
2018-06-01T14:14:37.197Z,8.03
2018-06-01T14:17:05.644Z,4.97
2018-06-01T14:19:33.236Z,5.33
2018-06-01T14:22:01.630Z,4.40
2018-06-01T14:24:31.297Z,4.63
2018-06-01T14:26:58.974Z,2.60
2018-06-01T14:29:26.581Z,4.70
2018-06-01T14:31:54.251Z,4.80
2018-06-01T14:34:21.825Z,3.90
2018-06-01T14:36:49.393Z,2.40
2018-06-01T14:39:17.037Z,3.40
2018-06-01T14:41:44.589Z,4.87
2018-06-01T14:44:12.933Z,3.80
2018-06-01T14:46:40.528Z,2.10
2018-06-01T14:49:09.027Z,2.20
2018-06-01T14:51:37.428Z,3.33
2018-06-01T14:54:05.220Z,2.83
2018-06-01T14:56:32.785Z,3.83
2018-06-01T14:59:01.130Z,4.27
2018-06-01T15:01:28.681Z,2.00
2018-06-01T15:03:56.254Z,4.70
2018-06-01T15:06:23.813Z,5.57
2018-06-01T15:08:51.389Z,2.10
2018-06-01T15:11:18.946Z,1.93
2018-06-01T15:13:46.523Z,1.97
2018-06-01T15:16:14.145Z,3.67
2018-06-01T15:18:41.779Z,4.03
2018-06-01T15:21:09.394Z,2.50
2018-06-01T15:23:37.096Z,2.40
2018-06-01T15:26:05.047Z,2.60
2018-06-01T15:28:32.638Z,4.57
2018-06-01T15:31:00.188Z,4.03
2018-06-01T15:33:27.761Z,7.80
2018-06-01T15:35:55.318Z,2.17
2018-06-01T15:38:22.897Z,2.47
2018-06-01T15:40:50.477Z,5.47
2018-06-01T15:43:18.070Z,2.80
2018-06-01T15:45:45.670Z,7.80
2018-06-01T15:48:14.060Z,4.73
2018-06-01T15:50:41.702Z,5.80
2018-06-01T15:53:10.146Z,3.00
2018-06-01T15:55:38.126Z,7.73
2018-06-01T15:58:05.824Z,16.63
2018-06-01T16:00:34.138Z,14.93
2018-06-01T16:03:02.485Z,8.13
2018-06-01T16:05:30.061Z,7.73
2018-06-01T16:07:57.614Z,5.60
2018-06-01T16:10:25.194Z,6.70
2018-06-01T16:12:52.746Z,5.80
2018-06-01T16:15:21.749Z,13.03
2018-06-01T16:17:50.072Z,7.03
2018-06-01T16:20:17.647Z,5.40
2018-06-01T16:22:45.211Z,6.20
2018-06-01T16:25:12.830Z,6.87
2018-06-01T16:27:40.458Z,4.83
2018-06-01T16:30:08.126Z,5.10
2018-06-01T16:32:35.848Z,5.23
2018-06-01T16:35:03.486Z,7.13
2018-06-01T16:37:31.062Z,5.20
2018-06-01T16:39:58.692Z,6.23
2018-06-01T16:42:26.208Z,5.40
2018-06-01T16:44:53.781Z,6.70
2018-06-01T16:47:21.339Z,5.50
2018-06-01T16:49:48.918Z,7.63
2018-06-01T16:52:17.090Z,8.67
2018-06-01T16:54:44.695Z,8.73
2018-06-01T16:57:12.301Z,7.57
2018-06-01T16:59:40.552Z,5.10
2018-06-01T17:02:08.227Z,10.70
2018-06-01T17:04:35.870Z,6.30
2018-06-01T17:07:03.673Z,5.47
2018-06-01T17:09:31.235Z,4.60
2018-06-01T17:11:58.805Z,6.07
2018-06-01T17:14:26.358Z,3.10
2018-06-01T17:16:54.706Z,9.37
2018-06-01T17:19:22.271Z,4.30
2018-06-01T17:21:49.841Z,4.10
2018-06-01T17:24:17.406Z,5.30
2018-06-01T17:26:45.040Z,3.47
2018-06-01T17:29:13.416Z,7.40
2018-06-01T17:31:41.791Z,3.70
2018-06-01T17:34:10.993Z,4.07
2018-06-01T17:36:38.594Z,6.20
2018-06-01T17:39:06.987Z,4.30
2018-06-01T17:41:34.723Z,8.90
2018-06-01T17:44:03.058Z,3.63
2018-06-01T17:46:30.669Z,4.13
2018-06-01T17:48:58.740Z,5.70
2018-06-01T17:51:26.406Z,4.20
2018-06-01T17:53:54.006Z,7.07
2018-06-01T17:56:21.605Z,8.43
2018-06-01T17:58:49.161Z,3.43
2018-06-01T18:01:16.813Z,4.97
2018-06-01T18:03:44.386Z,7.80
2018-06-01T18:06:11.990Z,3.23
2018-06-01T18:08:39.587Z,3.90
2018-06-01T18:11:08.787Z,8.30
2018-06-01T18:13:36.413Z,4.17
2018-06-01T18:16:04.129Z,8.33
2018-06-01T18:18:32.474Z,4.97
2018-06-01T18:21:00.025Z,4.07
2018-06-01T18:23:29.031Z,3.17
2018-06-01T18:25:57.353Z,7.60
2018-06-01T18:28:24.927Z,6.27
2018-06-01T18:30:52.521Z,4.97
2018-06-01T18:33:20.150Z,4.60
2018-06-01T18:35:47.717Z,3.30
2018-06-01T18:38:16.151Z,5.03
2018-06-01T18:40:43.804Z,3.20
2018-06-01T18:43:11.415Z,3.17
2018-06-01T18:45:39.005Z,5.30
2018-06-01T18:48:06.665Z,3.73
2018-06-01T18:50:35.491Z,3.93
2018-06-01T18:53:03.130Z,5.80
2018-06-01T18:55:31.498Z,3.60
2018-06-01T18:57:59.077Z,3.60
2018-06-01T19:00:27.492Z,4.40
2018-06-01T19:02:55.134Z,3.47
2018-06-01T19:05:22.694Z,4.00
2018-06-01T19:07:50.269Z,4.10
2018-06-01T19:10:17.826Z,5.27
2018-06-01T19:12:46.213Z,3.80
2018-06-01T19:15:14.577Z,6.00
2018-06-01T19:17:42.192Z,3.17
2018-06-01T19:20:09.790Z,6.77
2018-06-01T19:22:37.567Z,5.13
2018-06-01T19:25:05.197Z,5.57
2018-06-01T19:27:33.560Z,4.77
2018-06-01T19:30:01.156Z,3.43
2018-06-01T19:32:28.721Z,5.40
2018-06-01T19:34:58.347Z,4.33
2018-06-01T19:37:25.990Z,4.10
2018-06-01T19:39:53.526Z,3.70
2018-06-01T19:42:22.093Z,5.00
2018-06-01T19:44:49.665Z,4.97
2018-06-01T19:47:17.994Z,4.00
2018-06-01T19:49:45.569Z,4.27
2018-06-01T19:52:13.140Z,3.63
2018-06-01T19:54:40.749Z,6.67
2018-06-01T19:57:08.305Z,5.73
2018-06-01T19:59:36.429Z,5.37
2018-06-01T20:02:05.077Z,4.37
2018-06-01T20:04:32.655Z,4.33
2018-06-01T20:07:00.206Z,5.10
2018-06-01T20:09:27.777Z,5.60
2018-06-01T20:11:56.249Z,4.83
2018-06-01T20:14:24.601Z,4.70
2018-06-01T20:16:52.158Z,6.67
2018-06-01T20:19:19.733Z,8.47
2018-06-01T20:21:47.896Z,7.13
2018-06-01T20:24:15.470Z,5.07
2018-06-01T20:26:43.078Z,6.27
2018-06-01T20:29:11.433Z,4.33
2018-06-01T20:31:40.873Z,5.00
2018-06-01T20:34:08.850Z,5.57
2018-06-01T20:36:36.517Z,5.30
2018-06-01T20:39:04.171Z,4.27
2018-06-01T20:41:31.729Z,4.60
2018-06-01T20:44:00.069Z,5.77
2018-06-01T20:46:27.613Z,5.80
2018-06-01T20:48:55.184Z,6.00
2018-06-01T20:51:22.776Z,4.90
2018-06-01T20:53:50.438Z,4.97
2018-06-01T20:56:17.997Z,8.40
2018-06-01T20:58:46.445Z,5.23
2018-06-01T21:01:14.076Z,6.27
2018-06-01T21:03:41.664Z,6.93
2018-06-01T21:06:09.258Z,8.10
2018-06-01T21:08:36.880Z,4.40
2018-06-01T21:11:04.535Z,5.23
2018-06-01T21:13:35.438Z,6.67
2018-06-01T21:16:03.157Z,8.10
2018-06-01T21:18:30.756Z,10.57
2018-06-01T21:20:58.326Z,4.60
2018-06-01T21:23:25.877Z,4.77
2018-06-01T21:25:54.303Z,8.73
2018-06-01T21:28:21.860Z,7.10
2018-06-01T21:30:49.437Z,6.30
2018-06-01T21:33:16.998Z,4.70
2018-06-01T21:35:44.647Z,5.57
2018-06-01T21:38:12.337Z,5.93
2018-06-01T21:40:40.085Z,5.07
2018-06-01T21:43:07.925Z,4.83
2018-06-01T21:45:35.518Z,9.03
2018-06-01T21:48:03.086Z,5.80
2018-06-01T21:50:30.799Z,5.83
2018-06-01T21:52:58.357Z,6.13
2018-06-01T21:55:25.925Z,5.30
2018-06-01T21:57:53.478Z,8.03
2018-06-01T22:00:21.057Z,5.60
2018-06-01T22:02:48.630Z,6.13
2018-06-01T22:05:16.225Z,8.13
2018-06-01T22:07:43.809Z,6.30
2018-06-01T22:10:12.300Z,7.97
2018-06-01T22:12:40.668Z,6.27
2018-06-01T22:15:08.447Z,5.10
2018-06-01T22:17:36.272Z,5.90
2018-06-01T22:20:03.888Z,6.23
2018-06-01T22:22:32.688Z,5.90
2018-06-01T22:25:00.247Z,6.03
2018-06-01T22:27:27.820Z,4.57
2018-06-01T22:29:55.378Z,5.70
2018-06-01T22:32:22.953Z,5.13
2018-06-01T22:34:50.520Z,5.83
2018-06-01T22:37:18.094Z,9.40
2018-06-01T22:39:46.431Z,5.87
2018-06-01T22:42:14.105Z,6.60
2018-06-01T22:44:41.724Z,7.57
2018-06-01T22:47:09.408Z,6.47
2018-06-01T22:49:36.993Z,5.63
2018-06-01T22:52:04.631Z,5.20
2018-06-01T22:54:32.952Z,6.70
2018-06-01T22:57:00.522Z,9.13
2018-06-01T22:59:28.083Z,5.83
2018-06-01T23:01:55.681Z,7.67
2018-06-01T23:04:23.234Z,5.60
2018-06-01T23:06:50.814Z,11.80
2018-06-01T23:09:18.365Z,8.63
2018-06-01T23:11:46.702Z,5.57
2018-06-01T23:14:14.290Z,5.40
2018-06-01T23:16:42.684Z,6.10
2018-06-01T23:19:10.298Z,6.67
2018-06-01T23:21:38.014Z,5.10
2018-06-01T23:24:05.587Z,8.70
2018-06-01T23:26:33.850Z,6.13
2018-06-01T23:29:01.531Z,7.10
2018-06-01T23:31:29.080Z,5.17
2018-06-01T23:33:56.662Z,6.30
2018-06-01T23:36:24.222Z,5.00
2018-06-01T23:38:51.797Z,5.07
2018-06-01T23:41:19.357Z,7.97
2018-06-01T23:43:48.579Z,6.13
2018-06-01T23:46:16.315Z,7.87
2018-06-01T23:48:43.978Z,6.73
2018-06-01T23:51:12.362Z,6.53
2018-06-01T23:53:40.216Z,5.27
2018-06-01T23:56:08.321Z,7.87
2018-06-01T23:58:35.987Z,6.73
